KPLN/PLN METAR and TAF weather

Enter ICAO airport designator
Station Type Date Time Source
KPLN METAR 2019/04/22 15:54 UTC NOAA

KPLN 221554Z AUTO 12003KT 10SM BKN110 14/04 A3006 RMK AO2 RAB38E50 SLP184 P0000 T01440039


Station Type Date Time Source
KPLN Decoded METAR 2019/04/22 15:54 UTC NOAA

PELLSTON REGIONAL AIRPORT, MI, United States (KPLN) 45-34N 084-48W 217M
Apr 22, 2019 - 11:54 AM EDT / 2019.04.22 1554 UTC
Wind: from the ESE (120 degrees) at 3 MPH (3 KT):0
Visibility: 10 mile(s):0
Sky conditions: mostly cloudy
Precipitation last hour: A trace
Temperature: 57.9 F (14.4 C)
Dew Point: 39.0 F (3.9 C)
Relative Humidity: 49%
Pressure (altimeter): 30.06 in. Hg (1017 hPa)
ob: KPLN 221554Z AUTO 12003KT 10SM BKN110 14/04 A3006 RMK AO2 RAB38E50 SLP184 P0000 T01440039
cycle: 16

Station Type Date Time Source
KPLN TAF 2019/04/22 12:22 UTC NOAA

TAF KPLN 221120Z 2212/2312 10006KT P6SM BKN120 OVC180
FM221700 06011KT P6SM BKN150
FM222100 03011KT P6SM BKN150
FM230500 06008KT 6SM -SHRA VCTS BKN050CB OVC090
FM231000 34007KT 6SM -SHRA OVC020

Example: see airport list